tititudorancea.com
Station Historical Data
Daily Summary for December 2, 2018 Units:  Metric    English   Both
« Previous Day
Next Day »
Daily Weekly Monthly Yearly Custom
  High: Low: Average:
Temperature: -17.8 °C 10.3 °C 13.8 °C
Dew Point: -17.8 °C 3.4 °C 6.6 °C
Humidity: Humidity % 40 % 63 %
Wind Speed: 0 km/h 0 km/h 20 km/h
Wind Gust: 0 km/h - -
Wind:- - West
Pressure: 0 hPa 995.8 hPa -
Precipitation: 3.61 mm    
Historical Graphs
 
 
Ararat weather Find more about Weather in Ararat, AU


 



 


Tabular Data for December 2, 2018
Time Temperature Dew Point Pressure Wind Wind Speed Wind Gust Humidity Rainfall Rate (Hourly)
-17.8 °C -17.8 °C 0 hPa Calm     Humidity % 0 mm
00:04 18.1 °C 13.3 °C 996.5 hPa NW 11.1 km/h 10 km/h 74 % 0 mm
00:09 18.1 °C 13.4 °C 996.5 hPa NW 16.7 km/h 10.3 km/h 74 % 0 mm
00:14 18.1 °C 13.6 °C 996.2 hPa NNW 18.5 km/h 7.7 km/h 75 % 0.41 mm
00:19 17.8 °C 13.7 °C 996.5 hPa NNW 9.3 km/h 5.3 km/h 77 % 0.61 mm
00:24 17.5 °C 13.8 °C 996.5 hPa NNW 9.7 km/h 9.3 km/h 79 % 0.61 mm
00:29 17.3 °C 13.8 °C 996.2 hPa NW 14.8 km/h 10.6 km/h 80 % 0.61 mm
00:34 17.3 °C 14 °C 996.2 hPa NW 18.5 km/h 12.6 km/h 81 % 0.2 mm
00:39 17.3 °C 14.1 °C 995.8 hPa NW 18.5 km/h 11.6 km/h 81 % 0.2 mm
00:44 17.3 °C 14.1 °C 995.8 hPa North 8 km/h 7.1 km/h 81 % 0.2 mm
00:49 17.4 °C 14.1 °C 995.8 hPa NW 14.8 km/h 7.2 km/h 81 % 0.2 mm
00:54 17.3 °C 14.1 °C 995.8 hPa NW 13 km/h 6.4 km/h 81 % 0.2 mm
00:59 17.3 °C 14.1 °C 995.8 hPa North 11.1 km/h 5.3 km/h 81 % 0.2 mm
01:04 17.3 °C 14.2 °C 996.2 hPa WNW 18.5 km/h 13.8 km/h 82 % 0.79 mm
01:09 17.2 °C 14.3 °C 996.2 hPa WNW 16.7 km/h 10.8 km/h 83 % 0.79 mm
01:14 17.1 °C 14.3 °C 996.2 hPa WNW 9.3 km/h 7.2 km/h 84 % 0.41 mm
01:19 16.9 °C 14.2 °C 995.8 hPa WNW 5.6 km/h 3.4 km/h 84 % 0.2 mm
01:24 15.9 °C 12.7 °C 996.2 hPa SW 27.8 km/h 17.9 km/h 81 % 0.2 mm
01:29 14.8 °C 12.1 °C 996.2 hPa SW 27.8 km/h 16.1 km/h 84 % 0.41 mm
01:34 14.1 °C 11.7 °C 996.2 hPa SSW 22.2 km/h 12.9 km/h 86 % 1.8 mm
01:39 13.7 °C 11.7 °C 996.2 hPa SW 20.4 km/h 15 km/h 88 % 2.01 mm
01:44 13.5 °C 11.7 °C 996.5 hPa SW 18.5 km/h 11.4 km/h 89 % 2.21 mm
01:49 13.3 °C 11.5 °C 996.5 hPa WSW 27.8 km/h 22.4 km/h 89 % 2.79 mm
01:54 13.1 °C 11.5 °C 996.5 hPa WSW 20.4 km/h 15.6 km/h 90 % 2.79 mm
01:59 13 °C 11.4 °C 996.5 hPa North 25.9 km/h 18.2 km/h 90 % 3 mm
02:04 12.9 °C 11.3 °C 996.5 hPa SW 31.5 km/h 21.9 km/h 90 % 2.79 mm
02:09 13 °C 11.2 °C 996.8 hPa WSW 30.6 km/h 19 km/h 89 % 2.79 mm
02:14 13.1 °C 11.3 °C 996.8 hPa WSW 27.4 km/h 19 km/h 89 % 2.79 mm
02:19 13.1 °C 11.2 °C 997.2 hPa SW 38.9 km/h 24 km/h 88 % 2.79 mm
02:24 13.2 °C 11.2 °C 996.8 hPa WSW 24.1 km/h 21.1 km/h 88 % 2.79 mm
02:29 13.2 °C 11.2 °C 997.2 hPa SW 31.5 km/h 18.8 km/h 88 % 2.59 mm
02:34 13.1 °C 11 °C 996.8 hPa SW 37 km/h 28 km/h 87 % 1.19 mm
02:39 13 °C 10.9 °C 997.2 hPa SW 42.6 km/h 26.2 km/h 87 % 0.99 mm
02:44 12.8 °C 10.7 °C 997.2 hPa SW 35.2 km/h 21.6 km/h 87 % 0.79 mm
02:49 12.7 °C 10.4 °C 997.2 hPa WSW 33.3 km/h 19.3 km/h 86 % 0.2 mm
02:54 12.5 °C 10.1 °C 997.5 hPa WSW 29.6 km/h 17.1 km/h 85 % 0.2 mm
02:59 12.4 °C 9.6 °C 997.5 hPa WSW 24.1 km/h 16.3 km/h 83 % 0 mm
03:04 12.4 °C 9.4 °C 997.5 hPa SW 24.1 km/h 16.6 km/h 82 % 0 mm
03:09 12.4 °C 9.3 °C 997.5 hPa WSW 25.9 km/h 17.5 km/h 81 % 0 mm
03:14 12.4 °C 9.3 °C 997.9 hPa SW 24.1 km/h 13.4 km/h 81 % 0 mm
03:19 12.4 °C 9.2 °C 997.9 hPa SW 24.1 km/h 14.3 km/h 81 % 0 mm
03:24 12.3 °C 9.1 °C 997.9 hPa SW 27.8 km/h 12.4 km/h 81 % 0 mm
03:29 12.2 °C 9 °C 998.2 hPa SW 22.5 km/h 14 km/h 81 % 0 mm
03:34 12.1 °C 8.9 °C 998.2 hPa SW 22.2 km/h 14.6 km/h 81 % 0 mm
03:39 12.1 °C 8.9 °C 998.2 hPa SW 18.5 km/h 10.3 km/h 81 % 0 mm
03:44 12.1 °C 8.9 °C 997.9 hPa SW 11.1 km/h 4.7 km/h 81 % 0 mm
03:49 12.1 °C 9.1 °C 997.9 hPa SW 14.8 km/h 12.4 km/h 82 % 0 mm
03:54 12.1 °C 9.1 °C 997.9 hPa SW 14.8 km/h 7.6 km/h 82 % 0 mm
03:59 12.1 °C 9.1 °C 998.2 hPa SSW 14.8 km/h 9.7 km/h 82 % 0 mm
04:04 12.1 °C 9.1 °C 998.2 hPa SSW 14.8 km/h 10.6 km/h 82 % 0 mm
04:09 12.1 °C 9.1 °C 998.2 hPa SW 18.5 km/h 15 km/h 82 % 0 mm
04:14 12.1 °C 9.3 °C 998.2 hPa SW 14.8 km/h 7.9 km/h 83 % 0 mm
04:19 12 °C 9.6 °C 998.2 hPa SW 17.7 km/h 11.3 km/h 85 % 0 mm
04:24 11.8 °C 9.5 °C 998.2 hPa SW 16.7 km/h 13.4 km/h 86 % 0 mm
04:29 11.6 °C 9.7 °C 998.5 hPa SW 25.9 km/h 18.8 km/h 88 % 0 mm
04:34 11.5 °C 9.6 °C 998.5 hPa SW 13 km/h 7.7 km/h 88 % 0 mm
04:39 11.4 °C 9.5 °C 998.5 hPa North 14.8 km/h 9.2 km/h 88 % 0 mm
04:44 11.4 °C 9.3 °C 998.9 hPa WSW 22.2 km/h 10.9 km/h 87 % 0 mm
04:49 11.4 °C 9.2 °C 998.5 hPa WSW 18.5 km/h 8.9 km/h 86 % 0 mm
04:54 11.4 °C 9.1 °C 998.9 hPa WSW 20.4 km/h 9.2 km/h 86 % 0 mm
04:59 11.4 °C 9.2 °C 998.9 hPa SSW 18.5 km/h 11.4 km/h 86 % 0 mm
05:04 11.4 °C 9.3 °C 999.2 hPa SW 24.1 km/h 18.8 km/h 87 % 0 mm
05:09 11.4 °C 9.3 °C 999.2 hPa SSW 24.1 km/h 14.8 km/h 87 % 0 mm
05:14 11.3 °C 9.2 °C 999.5 hPa SW 18.5 km/h 19.2 km/h 87 % 0 mm
05:19 11.2 °C 8.9 °C 999.5 hPa SW 25.9 km/h 18.2 km/h 86 % 0 mm
05:24 11.2 °C 8.8 °C 999.9 hPa SSW 18.5 km/h 13.4 km/h 85 % 0 mm
05:29 11.2 °C 8.7 °C 999.9 hPa SSW 24.1 km/h 15.4 km/h 85 % 0 mm
05:34 11.1 °C 8.5 °C 999.9 hPa SSW 18.5 km/h 11.3 km/h 84 % 0 mm
05:39 11.1 °C 8.1 °C 1000.2 hPa SSW 16.7 km/h 12.7 km/h 82 % 0 mm
05:44 11.1 °C 8.1 °C 1000.2 hPa SSW 9.3 km/h 10.6 km/h 82 % 0 mm
05:49 10.9 °C 7.8 °C 1000.2 hPa SW 24.1 km/h 13.7 km/h 81 % 0 mm
05:54 10.9 °C 7.8 °C 1000.6 hPa SW 14.8 km/h 11.4 km/h 81 % 0 mm
05:59 10.9 °C 7.8 °C 1000.6 hPa SSW 16.7 km/h 13.5 km/h 81 % 0 mm
06:04 10.8 °C 7.7 °C 1000.6 hPa SW 18.5 km/h 9 km/h 81 % 0 mm
06:09 10.8 °C 7.7 °C 1000.6 hPa SSW 18.5 km/h 13.2 km/h 81 % 0 mm
06:14 10.8 °C 7.4 °C 1000.6 hPa WSW 20.4 km/h 13 km/h 80 % 0 mm
06:19 10.8 °C 7.3 °C 1000.6 hPa WSW 35.4 km/h 18.8 km/h 79 % 0 mm
06:24 10.7 °C 7.1 °C 1000.6 hPa SW 37 km/h 20.9 km/h 78 % 0 mm
06:29 10.6 °C 6.9 °C 1000.6 hPa SW 24.1 km/h 14 km/h 78 % 0 mm
06:34 10.5 °C 6.8 °C 1000.6 hPa SW 29.6 km/h 21.9 km/h 78 % 0 mm
06:39 10.4 °C 6.9 °C 1000.9 hPa SW 29.6 km/h 22 km/h 79 % 0 mm
06:44 10.3 °C 7.1 °C 1000.9 hPa WSW 20.4 km/h 14.6 km/h 80 % 0 mm
06:49 10.3 °C 7 °C 1000.9 hPa WSW 14.8 km/h 15.1 km/h 80 % 0 mm
06:54 10.3 °C 7 °C 1000.9 hPa WSW 18.5 km/h 13 km/h 80 % 0 mm
06:59 10.4 °C 7.1 °C 1001.2 hPa WSW 25.9 km/h 21.2 km/h 80 % 0 mm
07:04 10.6 °C 7.1 °C 1001.2 hPa WSW 25.9 km/h 15.3 km/h 79 % 0 mm
07:09 10.7 °C 7.2 °C 1001.2 hPa WSW 22.2 km/h 14.8 km/h 79 % 0 mm
07:14 10.8 °C 6.9 °C 1001.2 hPa WSW 20.4 km/h 15.8 km/h 77 % 0 mm
07:19 10.9 °C 6.8 °C 1001.6 hPa SW 16.7 km/h 8.7 km/h 76 % 0 mm
07:24 11 °C 6.6 °C 1001.6 hPa SW 25.9 km/h 14.8 km/h 74 % 0 mm
07:29 11.1 °C 6.7 °C 1001.6 hPa West 22.2 km/h 16.4 km/h 74 % 0 mm
07:34 11.2 °C 6.7 °C 1001.9 hPa WSW 20.4 km/h 12.1 km/h 74 % 0 mm
07:39 11.3 °C 6.8 °C 1001.9 hPa SSW 20.4 km/h 14.2 km/h 74 % 0 mm
07:44 11.4 °C 6.8 °C 1001.9 hPa SSW 22.2 km/h 11.4 km/h 73 % 0 mm
07:49 11.4 °C 6.6 °C 1002.3 hPa SW 27.8 km/h 10.6 km/h 72 % 0 mm
07:54 11.6 °C 6.7 °C 1002.3 hPa WSW 20.4 km/h 20.1 km/h 72 % 0 mm
07:59 11.7 °C 6.6 °C 1002.3 hPa WSW 31.5 km/h 20.1 km/h 71 % 0 mm
08:04 11.7 °C 6.2 °C 1002.3 hPa SW 27.8 km/h 20.3 km/h 69 % 0 mm
08:09 11.8 °C 6.5 °C 1002.3 hPa West 20.4 km/h 17.5 km/h 70 % 0 mm
08:14 11.9 °C 6.2 °C 1002.6 hPa WSW 27.8 km/h 17.5 km/h 68 % 0 mm
08:19 12 °C 6.3 °C 1002.6 hPa SW 22.5 km/h 11.9 km/h 68 % 0 mm
08:24 12.2 °C 5.8 °C 1002.9 hPa WSW 29.6 km/h 14.8 km/h 65 % 0 mm
08:29 12.3 °C 5.9 °C 1002.9 hPa West 31.5 km/h 21.4 km/h 65 % 0 mm
08:34 12.2 °C 5.6 °C 1003.3 hPa North 27.4 km/h 20.6 km/h 64 % 0 mm
08:39 12 °C 5.2 °C 1003.3 hPa West 27.8 km/h 18.2 km/h 63 % 0 mm
08:44 11.9 °C 5.5 °C 1003.6 hPa West 25.9 km/h 25.9 km/h 65 % 0 mm
08:49 12.1 °C 5.4 °C 1003.6 hPa SW 25.9 km/h 19 km/h 64 % 0 mm
08:54 12.2 °C 5.6 °C 1003.6 hPa SW 25.9 km/h 17.5 km/h 64 % 0 mm
08:59 12.3 °C 5.9 °C 1003.6 hPa SW 16.7 km/h 9.2 km/h 65 % 0 mm
09:04 12.4 °C 5.6 °C 1003.6 hPa SW 14.8 km/h 10.5 km/h 63 % 0 mm
09:09 12.7 °C 5.6 °C 1003.6 hPa WSW 22.2 km/h 13.2 km/h 62 % 0 mm
09:14 12.9 °C 5.3 °C 1003.6 hPa SW 19.3 km/h 12.6 km/h 60 % 0 mm
09:19 12.9 °C 5.3 °C 1003.6 hPa North 22.2 km/h 14.2 km/h 60 % 0 mm
09:24 13.3 °C 5.4 °C 1003.6 hPa SW 30.6 km/h 21.6 km/h 59 % 0 mm
09:29 13.2 °C 5.4 °C 1003.6 hPa WSW 27.8 km/h 17.1 km/h 59 % 0 mm
09:34 13.3 °C 4.4 °C 1003.6 hPa WSW 24.1 km/h 13.8 km/h 55 % 0 mm
09:39 13.1 °C 4.5 °C 1003.9 hPa WSW 24.1 km/h 17.4 km/h 56 % 0 mm
09:44 12.8 °C 4.4 °C 1003.9 hPa North 22.2 km/h 19.2 km/h 57 % 0 mm
09:49 13 °C 4.7 °C 1003.9 hPa WSW 24.1 km/h 12.1 km/h 57 % 0 mm
09:54 13 °C 4.4 °C 1003.9 hPa WSW 31.5 km/h 17.7 km/h 56 % 0 mm
09:59 13.2 °C 4.4 °C 1003.9 hPa West 24.1 km/h 19.3 km/h 55 % 0 mm
10:04 13.1 °C 4.3 °C 1003.9 hPa West 22.2 km/h 15.3 km/h 55 % 0 mm
10:09 13.3 °C 4.7 °C 1004.3 hPa WSW 18.5 km/h 8.2 km/h 56 % 0 mm
10:14 13.9 °C 4.8 °C 1004.3 hPa West 24.1 km/h 15.8 km/h 54 % 0 mm
10:19 14.3 °C 4.6 °C 1004.3 hPa SW 29.6 km/h 16.1 km/h 52 % 0 mm
10:24 14.2 °C 4.5 °C 1004.3 hPa SW 29.6 km/h 17.5 km/h 52 % 0 mm
10:29 14 °C 4.6 °C 1004.3 hPa West 22.2 km/h 16.7 km/h 53 % 0 mm
10:34 14.2 °C 5.1 °C 1004.3 hPa WSW 27.4 km/h 13.5 km/h 54 % 0 mm
10:39 13.9 °C 4.2 °C 1004.3 hPa West 31.5 km/h 23.5 km/h 52 % 0 mm
10:44 13.8 °C 4.9 °C 1004.3 hPa West 20.4 km/h 18.5 km/h 55 % 0 mm
10:49 14.4 °C 4.4 °C 1004.6 hPa SSW 27.8 km/h 24 km/h 51 % 0 mm
10:54 14.4 °C 4.4 °C 1004.3 hPa SW 24.1 km/h 20 km/h 51 % 0 mm
10:55 14.4 °C 4.4 °C 1004.3 hPa SW 30.6 km/h 21.2 km/h 51 % 0 mm
11:09 14.7 °C 4.3 °C 1004.6 hPa SW 18.5 km/h 13 km/h 50 % 0 mm
11:14 14.6 °C 4 °C 1004.6 hPa North 22.5 km/h 16.9 km/h 49 % 0 mm
11:19 14.4 °C 4.2 °C 1004.6 hPa North 27.8 km/h 12.9 km/h 50 % 0 mm
11:24 14.9 °C 4 °C 1004.6 hPa WSW 31.5 km/h 10.9 km/h 48 % 0 mm
11:29 15.3 °C 3.8 °C 1004.6 hPa North 20.4 km/h 17.4 km/h 46 % 0 mm
11:34 15.5 °C 3.9 °C 1004.6 hPa WSW 29 km/h 17.2 km/h 46 % 0 mm
11:39 15.1 °C 3.8 °C 1004.6 hPa WSW 16.7 km/h 14.3 km/h 47 % 0 mm
11:44 15.6 °C 3.9 °C 1004.6 hPa WNW 27.4 km/h 21.1 km/h 46 % 0 mm
11:49 15.2 °C 4.2 °C 1004.6 hPa NW 18.5 km/h 9.3 km/h 48 % 0 mm
11:54 15.5 °C 3.9 °C 1004.6 hPa West 22.2 km/h 11.1 km/h 46 % 0 mm
11:59 15.7 °C 5 °C 1004.6 hPa WNW 18.5 km/h 12.4 km/h 49 % 0 mm
12:04 15.4 °C 3.6 °C 1004.6 hPa North 14.8 km/h 13.4 km/h 45 % 0 mm
12:09 15.3 °C 3.7 °C 1004.6 hPa North 25.9 km/h 24.1 km/h 46 % 0 mm
12:14 15.2 °C 3.6 °C 1005 hPa North 27.8 km/h 24.5 km/h 46 % 0 mm
12:19 15.2 °C 4.3 °C 1005 hPa West 20.4 km/h 11.9 km/h 48 % 0 mm
12:24 15.4 °C 4.4 °C 1005 hPa WSW 29.6 km/h 19.2 km/h 48 % 0 mm
12:29 14.9 °C 4.9 °C 1005 hPa WSW 27.8 km/h 25.1 km/h 51 % 0 mm
12:34 14.8 °C 5.1 °C 1005 hPa SW 31.5 km/h 21.7 km/h 52 % 0 mm
12:39 14.9 °C 5.2 °C 1005 hPa WSW 27.8 km/h 23.8 km/h 52 % 0 mm
12:44 15.5 °C 4.8 °C 1005 hPa SW 20.4 km/h 17.7 km/h 49 % 0 mm
12:49 15.8 °C 4.5 °C 1005.3 hPa WSW 20.9 km/h 16.7 km/h 47 % 0 mm
12:54 16.1 °C 3.8 °C 1005 hPa WSW 27.8 km/h 26.1 km/h 44 % 0 mm
12:59 16 °C 3.7 °C 1005 hPa North 29.6 km/h 15.4 km/h 44 % 0 mm
13:04 16.4 °C 3.8 °C 1005 hPa North 29.6 km/h 17.5 km/h 43 % 0 mm
13:09 16.7 °C 3.7 °C 1005 hPa WSW 31.5 km/h 24.3 km/h 42 % 0 mm
13:14 16.2 °C 3.6 °C 1005 hPa WSW 25.9 km/h 17.2 km/h 43 % 0 mm
13:19 16.5 °C 4.2 °C 1005 hPa West 25.9 km/h 21.6 km/h 44 % 0 mm
13:24 16.9 °C 4.3 °C 1005 hPa West 20.4 km/h 11.9 km/h 43 % 0 mm
13:29 16.8 °C 3.8 °C 1005 hPa WNW 25.7 km/h 21.7 km/h 42 % 0 mm
13:34 17.2 °C 3.4 °C 1005 hPa WNW 27.8 km/h 17.9 km/h 40 % 0 mm
13:39 16.7 °C 3.4 °C 1005 hPa WNW 16.7 km/h 11.9 km/h 41 % 0 mm
13:44 16.7 °C 3.7 °C 1004.6 hPa West 18.5 km/h 10.9 km/h 42 % 0 mm
13:49 16.6 °C 4.6 °C 1004.6 hPa WSW 20.4 km/h 14.2 km/h 45 % 0 mm
13:54 16.4 °C 4.4 °C 1004.6 hPa West 18.5 km/h 10.8 km/h 45 % 0 mm
13:59 16.4 °C 3.8 °C 1004.6 hPa West 29.6 km/h 26.2 km/h 43 % 0 mm
14:04 16.3 °C 4.1 °C 1005 hPa West 22.5 km/h 20.9 km/h 44 % 0 mm
14:09 15.9 °C 4.3 °C 1005 hPa WSW 29.6 km/h 18 km/h 46 % 0 mm
14:14 15.8 °C 4.2 °C 1005 hPa North 20.4 km/h 15 km/h 46 % 0 mm
14:19 15.7 °C 4.4 °C 1005 hPa WSW 20.4 km/h 14.6 km/h 47 % 0 mm
14:24 15.6 °C 4.9 °C 1004.6 hPa WSW 14.8 km/h 11.3 km/h 49 % 0 mm
14:29 16.4 °C 5.1 °C 1005 hPa WNW 24.1 km/h 22.9 km/h 47 % 0 mm
14:34 16.5 °C 4.5 °C 1005 hPa WSW 18.5 km/h 10.5 km/h 45 % 0 mm
14:39 16.5 °C 4.2 °C 1005 hPa West 25.9 km/h 21.1 km/h 44 % 0 mm
14:44 16.7 °C 4.7 °C 1005 hPa SW 25.9 km/h 21.7 km/h 45 % 0 mm
14:49 16.4 °C 4.8 °C 1005 hPa West 29.6 km/h 20.6 km/h 46 % 0 mm
14:54 16.1 °C 4.8 °C 1005.3 hPa West 25.9 km/h 17.2 km/h 47 % 0 mm
14:59 15.7 °C 5 °C 1005 hPa SW 31.5 km/h 17.9 km/h 49 % 0 mm
15:04 15.9 °C 4.9 °C 1005 hPa West 31.5 km/h 17.1 km/h 48 % 0 mm
15:09 16.5 °C 5.4 °C 1005 hPa West 29.6 km/h 21.6 km/h 48 % 0 mm
15:14 16.1 °C 4.7 °C 1005 hPa North 24.1 km/h 18.5 km/h 47 % 0 mm
15:19 16 °C 4.1 °C 1005 hPa SW 18.5 km/h 15 km/h 45 % 0 mm
15:24 16.3 °C 4 °C 1005 hPa WSW 22.2 km/h 16.4 km/h 44 % 0 mm
15:29 16.2 °C 4.5 °C 1005 hPa WNW 25.7 km/h 20.3 km/h 46 % 0 mm
15:34 16.6 °C 4.9 °C 1005 hPa West 31.5 km/h 20.1 km/h 46 % 0 mm
15:39 16.3 °C 4.9 °C 1005.3 hPa North 25.9 km/h 18.5 km/h 47 % 0 mm
15:44 16.2 °C 4.9 °C 1005.3 hPa West 27.8 km/h 22.7 km/h 47 % 0 mm
15:49 15.9 °C 5.5 °C 1005.3 hPa West 27.8 km/h 20.6 km/h 50 % 0 mm
15:54 15.8 °C 6 °C 1005.3 hPa SW 20.4 km/h 15.6 km/h 52 % 0 mm
15:59 15.4 °C 5.9 °C 1005.6 hPa SW 27.8 km/h 20.8 km/h 53 % 0 mm
16:04 15.1 °C 6.6 °C 1005.6 hPa SW 25.9 km/h 20.1 km/h 57 % 0 mm
16:09 14.9 °C 6.4 °C 1005.6 hPa SW 19.3 km/h 20 km/h 57 % 0 mm
16:14 15.1 °C 6.9 °C 1005.6 hPa SW 18.5 km/h 17.5 km/h 58 % 0 mm
16:19 15.7 °C 6.9 °C 1005.3 hPa SW 20.4 km/h 12.9 km/h 56 % 0 mm
16:24 15.8 °C 6.3 °C 1005.6 hPa WSW 16.1 km/h 12.2 km/h 53 % 0 mm
16:29 15.9 °C 6.1 °C 1005.6 hPa SW 18.5 km/h 13.4 km/h 52 % 0 mm
16:34 16.3 °C 5.8 °C 1005.3 hPa WSW 22.2 km/h 16.3 km/h 50 % 0 mm
16:39 16.4 °C 5.9 °C 1005.3 hPa SW 22.2 km/h 12.2 km/h 50 % 0 mm
16:44 16.1 °C 5.1 °C 1005.6 hPa SW 22.5 km/h 13.7 km/h 48 % 0 mm
16:49 15.8 °C 4.5 °C 1005.6 hPa WSW 19.3 km/h 10.9 km/h 47 % 0 mm
16:54 15.7 °C 5.6 °C 1005.6 hPa WSW 31.5 km/h 15.3 km/h 51 % 0 mm
16:59 15.3 °C 6.8 °C 1006 hPa WSW 20.4 km/h 10.3 km/h 57 % 0 mm
17:04 15.2 °C 6.9 °C 1005.6 hPa SW 16.7 km/h 11.3 km/h 58 % 0 mm
17:09 15.3 °C 6.3 °C 1005.6 hPa SW 25.9 km/h 17.9 km/h 55 % 0 mm
17:14 15.2 °C 6.2 °C 1006 hPa SW 18.5 km/h 11.7 km/h 55 % 0 mm
17:19 15.1 °C 6.1 °C 1006 hPa WSW 22.2 km/h 10.5 km/h 55 % 0 mm
17:24 15.1 °C 5.9 °C 1006 hPa North 25.9 km/h 12.1 km/h 54 % 0 mm
17:29 15.1 °C 5.9 °C 1005.6 hPa WSW 17.7 km/h 14.2 km/h 54 % 0 mm
17:34 15.1 °C 5.6 °C 1006 hPa WSW 22.2 km/h 15 km/h 53 % 0 mm
17:39 15.1 °C 5.8 °C 1006 hPa WSW 18.5 km/h 8.4 km/h 54 % 0 mm
17:44 15 °C 6 °C 1006 hPa SW 20.4 km/h 15.3 km/h 55 % 0 mm
17:49 14.9 °C 6.2 °C 1006 hPa SW 19.3 km/h 10.8 km/h 56 % 0 mm
17:54 14.9 °C 6.2 °C 1006 hPa SW 16.7 km/h 10.8 km/h 56 % 0 mm
17:59 14.9 °C 6.2 °C 1006.3 hPa WSW 11.1 km/h 6.3 km/h 56 % 0 mm
18:04 15 °C 6.3 °C 1006.3 hPa WSW 11.3 km/h 10.6 km/h 56 % 0 mm
18:09 14.9 °C 6.2 °C 1006.3 hPa WSW 13 km/h 8 km/h 56 % 0 mm
18:14 15 °C 6.6 °C 1006.3 hPa WSW 14.5 km/h 8.2 km/h 57 % 0 mm
18:19 14.9 °C 6.2 °C 1006.7 hPa West 19.3 km/h 13.8 km/h 56 % 0 mm
18:24 15.1 °C 6.3 °C 1006.7 hPa WSW 16.7 km/h 11.3 km/h 56 % 0 mm
18:29 15.1 °C 6.3 °C 1006.7 hPa West 18.5 km/h 7.1 km/h 56 % 0 mm
18:34 15 °C 6.3 °C 1006.7 hPa SW 16.7 km/h 14.5 km/h 56 % 0 mm
18:39 15 °C 6.3 °C 1006.7 hPa WSW 13 km/h 11.6 km/h 56 % 0 mm
18:44 15.2 °C 6.7 °C 1006.7 hPa North 14.5 km/h 9.5 km/h 57 % 0 mm
18:49 15.2 °C 5.9 °C 1006.7 hPa SSW 20.4 km/h 13.4 km/h 54 % 0 mm
18:54 15.2 °C 5.9 °C 1006.7 hPa SW 19.3 km/h 14 km/h 54 % 0 mm
18:59 15.1 °C 5.6 °C 1007 hPa WSW 29.6 km/h 18.8 km/h 53 % 0 mm
19:04 14.9 °C 5.7 °C 1007 hPa WSW 22.2 km/h 16.7 km/h 54 % 0 mm
19:09 15.1 °C 5.8 °C 1007.3 hPa North 24.1 km/h 17.1 km/h 54 % 0 mm
19:14 15.2 °C 5.9 °C 1007.3 hPa WSW 16.7 km/h 10.3 km/h 54 % 0 mm
19:19 15 °C 5.8 °C 1007.3 hPa West 14.8 km/h 12.2 km/h 54 % 0 mm
19:24 14.8 °C 5.9 °C 1007.3 hPa West 18.5 km/h 12.1 km/h 55 % 0 mm
19:29 14.8 °C 5.9 °C 1007.3 hPa WSW 20.4 km/h 12.1 km/h 55 % 0 mm
19:34 15 °C 5.8 °C 1007.3 hPa West 16.7 km/h 10 km/h 54 % 0 mm
19:39 15 °C 5.5 °C 1007.3 hPa West 9.3 km/h 7.7 km/h 53 % 0 mm
19:44 14.9 °C 5.7 °C 1007.3 hPa West 16.7 km/h 10.1 km/h 54 % 0 mm
19:49 14.7 °C 5.2 °C 1007.3 hPa WSW 18.5 km/h 10.5 km/h 53 % 0 mm
19:54 14.6 °C 5.1 °C 1007.3 hPa WSW 16.7 km/h 10.6 km/h 53 % 0 mm
19:59 14.5 °C 5.3 °C 1007.3 hPa WSW 13 km/h 8.9 km/h 54 % 0 mm
20:04 14.4 °C 5.2 °C 1007.3 hPa WSW 19.3 km/h 10.9 km/h 54 % 0 mm
20:09 14.4 °C 5.2 °C 1007.7 hPa WSW 16.7 km/h 14.6 km/h 54 % 0 mm
20:14 14.4 °C 5.2 °C 1007.7 hPa West 18.5 km/h 8.2 km/h 54 % 0 mm
20:19 14.3 °C 5.4 °C 1007.7 hPa West 14.8 km/h 10.3 km/h 55 % 0 mm
20:24 14.3 °C 5.3 °C 1007.7 hPa North 13 km/h 8.5 km/h 55 % 0 mm
20:29 14.2 °C 5.6 °C 1008 hPa West 11.1 km/h 7.1 km/h 56 % 0 mm
20:34 14.2 °C 5.6 °C 1008 hPa West 7.4 km/h 5.3 km/h 56 % 0 mm
20:39 14.2 °C 5.5 °C 1008 hPa West 9.3 km/h 6 km/h 56 % 0 mm
20:44 14.1 °C 5.4 °C 1008 hPa North 6.4 km/h 6.3 km/h 56 % 0 mm
20:49 14 °C 5.6 °C 1008 hPa West 8 km/h 5.6 km/h 57 % 0 mm
20:54 14 °C 5.3 °C 1008 hPa West 14.8 km/h 10.6 km/h 56 % 0 mm
20:59 14.1 °C 5.2 °C 1008 hPa West 13 km/h 10.6 km/h 55 % 0 mm
21:04 14.1 °C 4.9 °C 1008.4 hPa WSW 18.5 km/h 10.8 km/h 54 % 0 mm
21:09 14.2 °C 5 °C 1008.4 hPa WSW 18.5 km/h 10.1 km/h 54 % 0 mm
21:14 14.2 °C 5 °C 1008.4 hPa West 16.7 km/h 12.9 km/h 54 % 0 mm
21:19 14.1 °C 4.9 °C 1008.4 hPa West 18.5 km/h 11.9 km/h 54 % 0 mm
21:24 14.1 °C 5.2 °C 1008.4 hPa WSW 16.7 km/h 13.4 km/h 55 % 0 mm
21:29 13.9 °C 5.1 °C 1008.4 hPa WSW 11.1 km/h 7.7 km/h 55 % 0 mm
21:34 13.8 °C 5.2 °C 1008.4 hPa WSW 11.3 km/h 7.4 km/h 56 % 0 mm
21:39 13.7 °C 5.3 °C 1008.4 hPa North 9.3 km/h 6.4 km/h 57 % 0 mm
21:44 13.6 °C 5.2 °C 1008.4 hPa North 9.7 km/h 10.3 km/h 57 % 0 mm
21:49 13.5 °C 5.2 °C 1008.4 hPa WSW 11.1 km/h 9.5 km/h 57 % 0 mm
21:54 13.4 °C 5.3 °C 1008.4 hPa North 11.1 km/h 9.7 km/h 58 % 0 mm
21:59 13.3 °C 5.2 °C 1008.4 hPa North 11.3 km/h 9.5 km/h 58 % 0 mm
22:04 13.1 °C 5.3 °C 1008.4 hPa North 5.6 km/h 3.9 km/h 59 % 0 mm
22:09 12.9 °C 5.1 °C 1008.4 hPa North 5.6 km/h 6 km/h 59 % 0 mm
22:14 12.8 °C 5.2 °C 1008.7 hPa West 5.6 km/h 5.1 km/h 60 % 0 mm
22:19 12.7 °C 5.3 °C 1008.7 hPa WSW 6.4 km/h 5.1 km/h 61 % 0 mm
22:24 12.6 °C 5.2 °C 1008.7 hPa West 5.6 km/h 3.5 km/h 61 % 0 mm
22:29 12.5 °C 5.2 °C 1008.4 hPa West 5.6 km/h 4.7 km/h 61 % 0 mm
22:34 12.4 °C 5.1 °C 1008.4 hPa North 7.4 km/h 6.6 km/h 61 % 0 mm
22:39 12.5 °C 5.2 °C 1008.4 hPa West 9.7 km/h 7.7 km/h 61 % 0 mm
22:44 12.5 °C 5.2 °C 1008.4 hPa North 5.6 km/h 3.2 km/h 61 % 0 mm
22:49 12.4 °C 5.3 °C 1008.7 hPa North 5.6 km/h 4.3 km/h 62 % 0 mm
22:54 12.3 °C 5.2 °C 1008.7 hPa West 5.6 km/h 4.3 km/h 62 % 0 mm
22:59 12.2 °C 5.4 °C 1008.7 hPa West 5.6 km/h 5 km/h 63 % 0 mm
23:04 12.2 °C 5.3 °C 1008.7 hPa West 5.6 km/h 3.9 km/h 63 % 0 mm
23:09 12.2 °C 5.6 °C 1008.7 hPa West 5.6 km/h 4.2 km/h 64 % 0 mm
23:14 12.1 °C 5.5 °C 1008.7 hPa West 7.4 km/h 6.3 km/h 64 % 0 mm
23:19 12.1 °C 5.4 °C 1008.4 hPa West 5.6 km/h 4.3 km/h 64 % 0 mm
23:24 12.2 °C 5.6 °C 1008.4 hPa West 7.4 km/h 5.6 km/h 64 % 0 mm
23:29 12.2 °C 5.6 °C 1008.4 hPa West 3.7 km/h 2.4 km/h 64 % 0 mm
23:34 12.2 °C 5.6 °C 1008.4 hPa West 1.6 km/h   64 % 0 mm
23:39 12.2 °C 5.8 °C 1008.4 hPa Calm     65 % 0 mm
23:44 12.2 °C 5.8 °C 1008.4 hPa West 6.4 km/h 5 km/h 65 % 0 mm
23:49 12.1 °C 5.9 °C 1008.4 hPa Calm   0.2 km/h 66 % 0 mm
23:54 12.1 °C 5.9 °C 1008 hPa West 3.7 km/h 1.8 km/h 66 % 0 mm
23:59 12 °C 5.8 °C 1008 hPa West 5.6 km/h 0.8 km/h 66 % 0 mm
Ararat Weather
Compliments of Weather Underground - 2.25 mb
Click here to send mail.


ABOUT

Live weather data from Ararat, Victoria, Australia, 3377
Data uploaded from Cumulus every 5 minutes to Weather Underground.
This site then downloads the raw data for formatting and display.
Metric and imperial data can be displayed. Graphs and historical data available.
Includes Sun and Moon times and rain image live from BOM.

Check out Ararat Weather on Facebook, Twitter and Google +

Help support ongoing costs by checking out the ads





Follow @AraratWeather